Abbott, New Mexico
Current Conditions -  °F | °C
As of 8:53 AM on Tuesday 21 Oct 2014 (Local Time) from KRTN Reporting Station
Clear Clear  
Wind Chill: 46°   Ceiling: Unl
Heat Index: 48°   Visibility: 10mi
Dew Point: 41°   Wind: 5mph
Humidity: 77%   Direction: 70°ENE
Pressure: 30.2"   Gusts: NA
Location:  36.3883°N, 104.381°W
Report Text: KRTN 211453Z AUTO 07004KT 10SM CLR 09/05 A3020 RMK AO2 SLP178 T00890050 53006
Loading
Personal Weather Stations






























Interactive Weather Map New forecast layout! Learn more

10-Day Weather Forecast

Advertisements
Track Severe Weather on mobile